Time;durP1;ratioP1;P1;durP2;ratioP2;P2;SDS_P1;SDS_P2;PMS_P1;PMS_P2;Temp;Humidity;BMP_temperature;BMP_pressure;BME280_temperature;BME280_humidity;BME280_pressure;Samples;Min_cycle;Max_cycle;Signal;HPM_P1;HPM_P2
2022/02/22 00:00:52;;;;;;;46.30;6.20;;;;;;;5.25;100.00;101866.44;5221181;28;20029;-73
2022/02/22 00:03:23;;;;;;;36.42;5.22;;;;;;;5.26;100.00;101876.97;5220805;28;20017;-72
2022/02/22 00:05:53;;;;;;;33.30;5.50;;;;;;;5.23;100.00;101882.53;5220667;28;20025;-73
2022/02/22 00:08:24;;;;;;;49.67;4.82;;;;;;;5.14;100.00;101876.03;5220827;28;20494;-72
2022/02/22 00:10:55;;;;;;;30.75;5.78;;;;;;;5.09;100.00;101882.63;5207639;28;20218;-72
2022/02/22 00:13:26;;;;;;;37.08;4.32;;;;;;;5.08;100.00;101884.44;5220667;28;20029;-73
2022/02/22 00:15:58;;;;;;;39.63;4.68;;;;;;;5.08;100.00;101904.88;5220203;28;20116;-73
2022/02/22 00:18:29;;;;;;;30.73;4.50;;;;;;;4.99;100.00;101906.34;5220804;28;20441;-73
2022/02/22 00:21:00;;;;;;;32.58;4.22;;;;;;;4.92;100.00;101918.34;5219836;28;20037;-73
2022/02/22 00:23:30;;;;;;;46.03;6.70;;;;;;;4.85;100.00;101912.56;5222471;28;20075;-73
2022/02/22 00:26:01;;;;;;;44.38;4.53;;;;;;;4.79;100.00;101915.66;5220641;28;20061;-73
2022/02/22 00:28:32;;;;;;;31.63;5.03;;;;;;;4.76;100.00;101909.69;5220013;28;20017;-73
2022/02/22 00:31:03;;;;;;;40.65;5.38;;;;;;;4.74;100.00;101920.44;5220511;28;20021;-73
2022/02/22 00:33:34;;;;;;;52.33;6.13;;;;;;;4.76;100.00;101920.31;5219077;28;20040;-73
2022/02/22 00:36:05;;;;;;;40.47;5.18;;;;;;;4.71;100.00;101933.91;5220138;28;20063;-73
2022/02/22 00:38:35;;;;;;;57.25;6.55;;;;;;;4.67;100.00;101929.78;5220400;28;20052;-73
2022/02/22 00:41:06;;;;;;;34.88;4.53;;;;;;;4.58;100.00;101941.00;5218908;28;20074;-73
2022/02/22 00:43:36;;;;;;;39.95;6.05;;;;;;;4.50;100.00;101941.50;5220727;28;20092;-73
2022/02/22 00:46:07;;;;;;;45.67;4.78;;;;;;;4.50;100.00;101935.34;5220650;28;20028;-73
2022/02/22 00:48:37;;;;;;;34.30;4.88;;;;;;;4.46;100.00;101939.13;5220893;28;20024;-73
2022/02/22 00:51:08;;;;;;;41.15;5.35;;;;;;;4.46;100.00;101939.13;5220692;28;20023;-73
2022/02/22 00:53:38;;;;;;;37.70;4.72;;;;;;;4.43;100.00;101939.34;5219837;28;20463;-72
2022/02/22 00:56:09;;;;;;;43.75;5.35;;;;;;;4.46;100.00;101947.09;5219931;28;20033;-73
2022/02/22 00:58:39;;;;;;;45.67;5.45;;;;;;;4.41;100.00;101942.94;5220194;28;20487;-72
2022/02/22 01:01:14;;;;;;;49.72;8.95;;;;;;;4.46;100.00;101944.44;5220386;28;20086;-73
2022/02/22 01:03:45;;;;;;;34.80;4.43;;;;;;;4.39;100.00;101952.81;5219495;28;20027;-72
2022/02/22 01:06:15;;;;;;;48.35;5.78;;;;;;;4.34;100.00;101941.66;5219808;28;20078;-73
2022/02/22 01:08:46;;;;;;;40.38;4.78;;;;;;;4.37;100.00;101941.47;5219929;28;20028;-72
2022/02/22 01:11:16;;;;;;;40.72;5.00;;;;;;;4.33;100.00;101945.25;5220135;28;20296;-73
2022/02/22 01:13:47;;;;;;;29.95;3.92;;;;;;;4.27;100.00;101952.78;5218242;28;20023;-73
2022/02/22 01:16:17;;;;;;;28.23;4.40;;;;;;;4.18;100.00;101943.59;5219530;28;20035;-73
2022/02/22 01:18:48;;;;;;;44.03;5.80;;;;;;;4.25;100.00;101942.22;5219979;28;20114;-72
2022/02/22 01:21:18;;;;;;;49.38;4.93;;;;;;;4.15;100.00;101941.13;5220230;28;20013;-73
2022/02/22 01:23:49;;;;;;;41.42;4.85;;;;;;;4.04;100.00;101938.31;5219391;28;20044;-74
2022/02/22 01:26:20;;;;;;;39.83;7.13;;;;;;;3.95;100.00;101939.72;5219721;28;20489;-72
2022/02/22 01:28:50;;;;;;;39.90;6.45;;;;;;;3.82;100.00;101944.97;5219752;28;20029;-73
2022/02/22 01:31:21;;;;;;;36.60;4.38;;;;;;;3.71;100.00;101951.88;5220105;28;20035;-72
2022/02/22 01:33:55;;;;;;;39.92;5.38;;;;;;;3.58;100.00;101951.78;5220199;28;20014;-72
2022/02/22 01:36:26;;;;;;;31.83;4.28;;;;;;;3.48;100.00;101962.13;5219761;28;20075;-72
2022/02/22 01:38:56;;;;;;;33.70;5.38;;;;;;;3.37;100.00;101973.38;5219965;28;20068;-72
2022/02/22 01:41:29;;;;;;;50.72;6.80;;;;;;;3.28;100.00;101975.72;5219555;28;20487;-72
2022/02/22 01:44:01;;;;;;;43.22;5.65;;;;;;;3.18;100.00;101972.78;5219998;28;20025;-73
2022/02/22 01:46:32;;;;;;;42.47;7.13;;;;;;;3.08;100.00;101982.22;5219605;28;20482;-73
2022/02/22 01:49:02;;;;;;;48.30;6.03;;;;;;;3.00;100.00;101998.56;5220129;28;20029;-72
2022/02/22 01:51:33;;;;;;;50.10;6.03;;;;;;;2.91;100.00;101983.19;5219834;28;20561;-72
2022/02/22 01:54:03;;;;;;;26.48;6.05;;;;;;;2.83;100.00;101982.78;5219331;28;20031;-72
2022/02/22 01:56:35;;;;;;;38.38;5.15;;;;;;;2.75;100.00;101971.75;5219506;28;20102;-72
2022/02/22 01:59:05;;;;;;;34.95;5.25;;;;;;;2.70;100.00;101972.03;5220093;28;20253;-73
2022/02/22 02:01:36;;;;;;;33.70;5.20;;;;;;;2.71;100.00;101976.41;5224184;28;20092;-73
2022/02/22 02:04:07;;;;;;;36.65;5.75;;;;;;;2.72;100.00;101978.09;5223993;28;20025;-73
2022/02/22 02:06:38;;;;;;;33.10;5.35;;;;;;;2.74;100.00;101976.22;5223979;28;20143;-72
2022/02/22 02:09:10;;;;;;;36.42;4.80;;;;;;;2.72;100.00;101978.09;5222708;28;20021;-73
2022/02/22 02:11:58;;;;;;;42.75;5.30;;;;;;;2.73;100.00;101961.25;5224399;28;20163;-73
2022/02/22 02:14:29;;;;;;;37.08;4.60;;;;;;;2.72;100.00;101969.31;5222445;28;20021;-73
2022/02/22 02:16:59;;;;;;;36.60;4.82;;;;;;;2.69;100.00;101978.28;5223851;28;20033;-73
2022/02/22 02:19:30;;;;;;;27.23;4.50;;;;;;;2.64;100.00;101982.13;5224186;28;20043;-73
2022/02/22 02:22:00;;;;;;;36.33;5.85;;;;;;;2.54;100.00;101984.44;5223628;28;20099;-73
2022/02/22 02:24:31;;;;;;;42.22;5.30;;;;;;;2.45;100.00;101974.34;5223648;28;20219;-73
2022/02/22 02:27:02;;;;;;;38.63;4.80;;;;;;;2.38;100.00;101976.50;5223811;28;20033;-73
2022/02/22 02:29:32;;;;;;;25.27;4.55;;;;;;;2.36;100.00;101974.88;5223829;28;20478;-73
2022/02/22 02:32:03;;;;;;;36.47;4.93;;;;;;;2.29;100.00;101972.56;5223876;28;20025;-73
2022/02/22 02:34:33;;;;;;;43.63;5.45;;;;;;;2.27;100.00;101963.88;5223304;28;20593;-74
2022/02/22 02:37:04;;;;;;;36.42;5.35;;;;;;;2.23;100.00;101962.31;5223485;28;20025;-73
2022/02/22 02:39:35;;;;;;;27.58;3.75;;;;;;;2.18;100.00;101961.72;5223360;28;20056;-72
2022/02/22 02:42:06;;;;;;;35.63;4.75;;;;;;;2.13;100.00;101976.16;5223137;28;20107;-72
2022/02/22 02:44:37;;;;;;;46.83;4.85;;;;;;;2.08;100.00;101987.84;5223088;28;20020;-72
2022/02/22 02:47:07;;;;;;;54.53;6.03;;;;;;;2.02;100.00;101987.34;5223283;28;20035;-72
2022/02/22 02:49:39;;;;;;;40.63;4.35;;;;;;;1.93;100.00;101977.25;5223877;28;20048;-72
2022/02/22 02:52:10;;;;;;;33.33;5.07;;;;;;;1.87;100.00;101980.22;5222637;28;20493;-73
2022/02/22 02:54:41;;;;;;;40.22;6.10;;;;;;;1.85;100.00;101971.50;5222903;28;20021;-72
2022/02/22 02:57:13;;;;;;;43.75;6.07;;;;;;;1.87;100.00;101977.59;5223346;28;20561;-72
2022/02/22 02:59:43;;;;;;;48.30;6.05;;;;;;;1.87;100.00;101980.22;5223416;28;20087;-73
2022/02/22 03:02:14;;;;;;;39.15;6.10;;;;;;;1.85;100.00;101977.66;5223389;28;20179;-73
2022/02/22 03:04:45;;;;;;;51.83;6.10;;;;;;;1.85;100.00;101982.09;5222440;28;20025;-73
2022/02/22 03:07:15;;;;;;;45.60;6.32;;;;;;;1.86;100.00;101986.44;5221877;28;20025;-73
2022/02/22 03:09:46;;;;;;;46.70;5.53;;;;;;;1.88;100.00;101979.28;5223002;28;20432;-72
2022/02/22 03:12:16;;;;;;;46.22;5.32;;;;;;;1.96;100.00;101993.81;5222740;28;20028;-72
2022/02/22 03:14:49;;;;;;;42.97;4.45;;;;;;;2.02;100.00;101995.28;5222675;28;20075;-72
2022/02/22 03:17:20;;;;;;;51.45;6.47;;;;;;;2.11;100.00;101996.56;5222676;28;20036;-72
2022/02/22 03:19:50;;;;;;;36.15;5.22;;;;;;;2.14;100.00;101999.03;5222711;28;20402;-72
2022/02/22 03:22:21;;;;;;;37.97;5.32;;;;;;;2.11;100.00;101993.91;5222271;28;20199;-72
2022/02/22 03:24:51;;;;;;;33.13;4.60;;;;;;;2.08;100.00;102001.09;5222624;28;20032;-72
2022/02/22 03:27:21;;;;;;;38.90;4.78;;;;;;;2.06;100.00;101994.19;5222640;28;20432;-72
2022/02/22 03:29:52;;;;;;;44.30;5.40;;;;;;;2.03;100.00;101989.03;5222059;28;20413;-72
2022/02/22 03:32:22;;;;;;;49.33;5.57;;;;;;;2.00;100.00;101982.09;5222460;28;20112;-72
2022/02/22 03:34:53;;;;;;;33.85;4.10;;;;;;;1.96;100.00;101977.94;5222077;28;20044;-72
2022/02/22 03:37:23;;;;;;;40.67;4.53;;;;;;;1.91;100.00;101980.00;5222695;28;20394;-72
2022/02/22 03:39:54;;;;;;;28.20;4.13;;;;;;;1.84;100.00;101977.75;5222404;28;20466;-72
2022/02/22 03:42:24;;;;;;;28.73;4.20;;;;;;;1.68;100.00;101975.91;5220860;28;20533;-72
2022/02/22 03:44:55;;;;;;;47.92;5.28;;;;;;;1.59;100.00;101973.75;5222105;28;20412;-72
2022/02/22 03:47:25;;;;;;;32.30;5.32;;;;;;;1.53;100.00;101972.28;5222421;28;20025;-71
2022/02/22 03:49:55;;;;;;;52.28;6.78;;;;;;;1.48;100.00;101960.25;5222097;28;20120;-72
2022/02/22 03:52:26;;;;;;;41.08;6.10;;;;;;;1.48;100.00;101963.75;5222276;28;20025;-72
2022/02/22 03:54:57;;;;;;;36.22;5.95;;;;;;;1.46;100.00;101978.84;5222172;28;20037;-70
2022/02/22 03:57:27;;;;;;;41.03;6.18;;;;;;;1.47;100.00;101977.91;5222189;28;20032;-70
2022/02/22 03:59:58;;;;;;;43.90;6.47;;;;;;;1.44;100.00;101971.91;5222405;28;20119;-70
2022/02/22 04:02:30;;;;;;;47.33;7.00;;;;;;;1.45;100.00;101957.75;5222122;28;20040;-70
2022/02/22 04:05:02;;;;;;;49.47;6.28;;;;;;;1.48;100.00;101969.03;5221401;28;20027;-70
2022/02/22 04:07:33;;;;;;;38.58;6.72;;;;;;;1.58;100.00;101976.47;5221968;28;20048;-70
2022/02/22 04:10:06;;;;;;;37.40;6.60;;;;;;;1.53;100.00;101971.44;5209199;28;20026;-70
2022/02/22 04:12:37;;;;;;;44.30;7.13;;;;;;;1.49;100.00;101973.38;5207327;28;20025;-70
2022/02/22 04:15:08;;;;;;;46.90;7.03;;;;;;;1.49;100.00;101968.09;5205990;28;20037;-70
2022/02/22 04:17:39;;;;;;;46.55;7.57;;;;;;;1.50;100.00;101971.59;5220264;28;20219;-70
2022/02/22 04:20:11;;;;;;;47.85;8.10;;;;;;;1.45;100.00;101974.47;5221482;28;20025;-71
2022/02/22 04:22:41;;;;;;;45.47;6.47;;;;;;;1.43;100.00;101981.63;5220992;28;20009;-70
2022/02/22 04:25:12;;;;;;;41.72;6.07;;;;;;;1.47;100.00;101977.91;5221133;28;20051;-70
2022/02/22 04:27:43;;;;;;;38.67;6.50;;;;;;;1.50;100.00;101987.44;5221721;28;20536;-70
2022/02/22 04:30:13;;;;;;;45.97;6.78;;;;;;;1.49;100.00;101996.31;5220842;28;20121;-70
2022/02/22 04:32:44;;;;;;;44.55;5.85;;;;;;;1.54;100.00;101997.78;5221430;28;20475;-70
2022/02/22 04:35:14;;;;;;;43.97;6.55;;;;;;;1.54;100.00;101996.94;5221119;28;20478;-69
2022/02/22 04:37:44;;;;;;;35.25;5.78;;;;;;;1.56;100.00;102003.03;5221811;28;20073;-72
2022/02/22 04:40:15;;;;;;;37.20;5.15;;;;;;;1.54;100.00;102010.16;5220760;28;20289;-71
2022/02/22 04:42:48;;;;;;;42.03;5.80;;;;;;;1.53;100.00;102011.09;5221115;28;20386;-71
2022/02/22 04:45:19;;;;;;;30.75;5.15;;;;;;;1.49;100.00;102010.41;5221319;28;20024;-71
2022/02/22 04:47:49;;;;;;;40.92;5.68;;;;;;;1.50;100.00;102011.25;5221438;28;20043;-71
2022/02/22 04:50:21;;;;;;;31.60;4.85;;;;;;;1.49;100.00;102017.47;5221294;28;20617;-69
2022/02/22 04:52:51;;;;;;;45.75;5.95;;;;;;;1.52;100.00;102012.91;5220764;28;20309;-70
2022/02/22 04:55:22;;;;;;;48.13;6.40;;;;;;;1.52;100.00;102004.13;5220684;28;20029;-71
2022/02/22 04:57:53;;;;;;;40.25;6.00;;;;;;;1.50;100.00;102001.53;5220917;28;20025;-70
2022/02/22 05:00:23;;;;;;;33.13;5.18;;;;;;;1.51;100.00;102013.00;5221318;28;20060;-70
2022/02/22 05:02:54;;;;;;;39.13;5.78;;;;;;;1.49;100.00;102013.03;5220826;28;20045;-70
2022/02/22 05:05:25;;;;;;;34.42;5.38;;;;;;;1.52;100.00;102025.28;5220451;28;20060;-70
2022/02/22 05:07:56;;;;;;;38.63;5.22;;;;;;;1.59;100.00;102025.78;5221054;28;20052;-70
2022/02/22 05:10:27;;;;;;;36.75;5.03;;;;;;;1.66;100.00;102016.63;5220756;28;20035;-70
2022/02/22 05:12:57;;;;;;;39.90;5.18;;;;;;;1.75;100.00;102022.25;5221112;28;20025;-70
2022/02/22 05:15:32;;;;;;;35.88;4.88;;;;;;;1.85;100.00;102021.78;5220729;28;20629;-70
2022/02/22 05:18:03;;;;;;;32.90;4.90;;;;;;;1.94;100.00;102026.59;5221196;28;20124;-70
2022/02/22 05:20:34;;;;;;;42.63;4.70;;;;;;;2.05;100.00;102029.50;5220927;28;20032;-71
2022/02/22 05:23:04;;;;;;;38.40;4.63;;;;;;;2.10;100.00;102027.47;5220979;28;20017;-72
2022/02/22 05:25:35;;;;;;;28.90;4.72;;;;;;;2.14;100.00;102038.75;5220968;28;20108;-71
2022/02/22 05:28:05;;;;;;;23.50;3.78;;;;;;;2.22;100.00;102029.47;5221016;28;20036;-72
2022/02/22 05:30:36;;;;;;;31.13;4.38;;;;;;;2.36;100.00;102031.38;5220679;28;20101;-71
2022/02/22 05:33:07;;;;;;;38.05;4.68;;;;;;;2.44;100.00;102028.28;5220855;28;20220;-70
2022/02/22 05:35:37;;;;;;;31.67;4.45;;;;;;;2.49;100.00;102023.59;5223630;28;20032;-72
2022/02/22 05:38:08;;;;;;;27.88;6.15;;;;;;;2.50;100.00;102020.84;5223875;28;20547;-71
2022/02/22 05:40:38;;;;;;;36.63;4.72;;;;;;;2.52;100.00;102018.13;5224803;28;20305;-71
2022/02/22 05:43:09;;;;;;;23.95;3.88;;;;;;;2.55;100.00;102020.59;5224518;28;20460;-70
2022/02/22 05:45:40;;;;;;;50.42;14.30;;;;;;;2.55;100.00;102024.09;5224402;28;20033;-70
2022/02/22 05:48:10;;;;;;;27.50;6.00;;;;;;;2.55;100.00;102017.94;5224702;28;20100;-70
2022/02/22 05:50:41;;;;;;;36.33;4.93;;;;;;;2.57;100.00;102018.72;5224683;28;20377;-70
2022/02/22 05:53:11;;;;;;;32.80;4.57;;;;;;;2.57;100.00;102006.31;5224670;28;20025;-71
2022/02/22 05:55:42;;;;;;;29.85;4.88;;;;;;;2.57;100.00;102011.63;5224352;28;20116;-71
2022/02/22 05:58:13;;;;;;;37.97;9.10;;;;;;;2.58;100.00;102013.31;5224590;28;20486;-71
2022/02/22 06:00:43;;;;;;;29.10;4.97;;;;;;;2.63;100.00;102023.66;5224386;28;20024;-71
2022/02/22 06:03:14;;;;;;;23.83;5.07;;;;;;;2.66;100.00;102025.28;5224829;28;20025;-71
2022/02/22 06:05:44;;;;;;;26.25;6.85;;;;;;;2.69;100.00;102028.63;5224436;28;20104;-71
2022/02/22 06:08:15;;;;;;;81.50;25.17;;;;;;;2.73;100.00;102032.81;5224375;28;20028;-71
2022/02/22 06:10:47;;;;;;;65.03;24.33;;;;;;;2.75;100.00;102022.97;5223933;28;20619;-71
2022/02/22 06:13:18;;;;;;;47.25;15.27;;;;;;;2.76;100.00;102019.41;5224014;28;20120;-71
2022/02/22 06:15:49;;;;;;;46.17;7.05;;;;;;;2.75;100.00;102019.47;5223142;28;20109;-71
2022/02/22 06:18:19;;;;;;;37.53;6.88;;;;;;;2.73;100.00;102022.22;5223232;28;20025;-72
2022/02/22 06:20:49;;;;;;;39.50;7.00;;;;;;;2.71;100.00;102020.56;5222935;28;20025;-71
2022/02/22 06:23:20;;;;;;;35.40;5.25;;;;;;;2.65;100.00;102020.94;5222816;28;20115;-71
2022/02/22 06:25:50;;;;;;;37.65;6.72;;;;;;;2.60;100.00;102022.03;5223167;28;20413;-71
2022/02/22 06:28:21;;;;;;;28.00;5.07;;;;;;;2.59;100.00;102024.78;5223454;28;20451;-72
2022/02/22 06:30:51;;;;;;;28.80;5.55;;;;;;;2.59;100.00;102025.63;5222974;28;20097;-71
2022/02/22 06:33:22;;;;;;;32.28;5.53;;;;;;;2.56;100.00;102017.00;5223192;28;20013;-71
2022/02/22 06:35:53;;;;;;;30.75;6.78;;;;;;;2.63;100.00;102021.03;5223049;28;20028;-71
2022/02/22 06:38:23;;;;;;;40.25;6.68;;;;;;;2.62;100.00;102023.75;5223233;28;20427;-71
2022/02/22 06:40:53;;;;;;;41.33;7.22;;;;;;;2.63;100.00;102021.03;5222925;28;20025;-71
2022/02/22 06:43:24;;;;;;;39.92;7.60;;;;;;;2.69;100.00;102019.81;5223041;28;20110;-72
2022/02/22 06:45:54;;;;;;;32.45;7.03;;;;;;;2.75;100.00;102008.88;5222218;28;20482;-71
2022/02/22 06:48:25;;;;;;;47.13;7.40;;;;;;;2.80;100.00;102002.34;5223599;28;20025;-71
2022/02/22 06:50:55;;;;;;;36.75;6.95;;;;;;;2.89;100.00;102008.94;5223355;28;20052;-71
2022/02/22 06:53:26;;;;;;;33.25;8.10;;;;;;;2.93;100.00;102010.47;5223137;28;20021;-72
2022/02/22 06:55:56;;;;;;;41.17;8.30;;;;;;;3.04;100.00;102013.34;5222294;28;20237;-72
2022/02/22 06:58:27;;;;;;;34.60;7.68;;;;;;;3.17;100.00;102013.50;5222836;28;20029;-72
2022/02/22 07:00:58;;;;;;;47.10;10.25;;;;;;;3.29;100.00;102009.25;5222375;28;20032;-72
2022/02/22 07:03:29;;;;;;;46.42;8.02;;;;;;;3.37;100.00;102013.16;5222814;28;20029;-72
2022/02/22 07:06:01;;;;;;;53.80;8.07;;;;;;;3.45;100.00;102003.88;5222231;28;20398;-72
2022/02/22 07:08:31;;;;;;;45.65;8.02;;;;;;;3.53;100.00;101994.53;5220921;28;20024;-71
2022/02/22 07:11:02;;;;;;;59.03;8.77;;;;;;;3.61;100.00;101986.09;5222464;28;20070;-71
2022/02/22 07:13:33;;;;;;;37.63;6.45;;;;;;;3.71;100.00;101991.69;5220867;28;20473;-72
2022/02/22 07:16:03;;;;;;;50.28;8.18;;;;;;;3.76;100.00;101986.94;5222168;28;20025;-72
2022/02/22 07:18:34;;;;;;;52.97;8.32;;;;;;;3.77;100.00;101978.06;5222384;28;20036;-71
2022/02/22 07:21:04;;;;;;;58.42;8.00;;;;;;;3.83;100.00;101972.38;5222242;28;20025;-72
2022/02/22 07:23:35;;;;;;;63.25;10.48;;;;;;;3.89;100.00;101977.28;5224293;28;20108;-72
2022/02/22 07:26:05;;;;;;;63.88;10.45;;;;;;;4.01;100.00;101983.63;5222188;28;20016;-72
2022/02/22 07:28:36;;;;;;;37.83;7.13;;;;;;;4.07;100.00;101978.81;5222331;28;20021;-72
2022/02/22 07:31:07;;;;;;;48.58;7.93;;;;;;;4.13;100.00;101981.06;5222094;28;20031;-72
2022/02/22 07:33:39;;;;;;;40.25;8.15;;;;;;;4.17;100.00;101971.09;5220551;28;20112;-72
2022/02/22 07:36:11;;;;;;;41.88;7.68;;;;;;;4.24;100.00;101983.03;5222367;28;20086;-72
2022/02/22 07:38:41;;;;;;;39.05;7.38;;;;;;;4.30;100.00;101977.31;5222411;28;20070;-73
2022/02/22 07:41:22;;;;;;;58.60;7.45;;;;;;;4.35;100.00;101971.72;5221812;28;20029;-72
2022/02/22 07:43:52;;;;;;;37.47;7.38;;;;;;;4.41;100.00;101966.00;5221530;28;20053;-73
2022/02/22 07:46:23;;;;;;;42.00;6.55;;;;;;;4.49;100.00;101973.50;5221159;28;20076;-72
2022/02/22 07:48:53;;;;;;;46.60;7.60;;;;;;;4.53;100.00;101967.03;5221598;28;20021;-72
2022/02/22 07:51:24;;;;;;;31.10;7.20;;;;;;;4.53;100.00;101965.22;5221299;28;20397;-72
2022/02/22 07:53:55;;;;;;;50.20;7.45;;;;;;;4.61;100.00;101962.91;5221324;28;20402;-72
2022/02/22 07:56:25;;;;;;;39.92;7.57;;;;;;;4.74;100.00;101965.63;5220422;28;20025;-72
2022/02/22 07:58:55;;;;;;;38.00;5.85;;;;;;;4.81;100.00;101953.59;5220264;28;20040;-72
2022/02/22 08:01:26;;;;;;;40.67;6.55;;;;;;;4.89;100.00;101945.13;5221510;28;20048;-72
2022/02/22 08:03:56;;;;;;;40.85;6.85;;;;;;;4.92;100.00;101945.78;5221123;28;20028;-72
2022/02/22 08:06:27;;;;;;;32.25;5.97;;;;;;;4.97;100.00;101942.84;5221241;28;20056;-72
2022/02/22 08:08:57;;;;;;;50.30;8.75;;;;;;;5.07;100.00;101945.69;5220862;28;20259;-72
2022/02/22 08:11:31;;;;;;;36.30;5.88;;;;;;;5.28;100.00;101938.09;5221280;28;20042;-72
2022/02/22 08:14:02;;;;;;;35.13;5.32;;;;;;;5.35;100.00;101931.38;5221199;28;20115;-72
2022/02/22 08:16:32;;;;;;;37.72;6.72;;;;;;;5.31;100.00;101921.88;5219429;28;20043;-72
2022/02/22 08:19:03;;;;;;;24.67;5.82;;;;;;;5.40;100.00;101937.22;5221063;28;20389;-72
2022/02/22 08:21:34;;;;;;;43.65;6.18;;;;;;;5.53;100.00;101924.78;5220874;28;20306;-72
2022/02/22 08:24:05;;;;;;;32.10;5.60;;;;;;;5.53;100.00;101926.59;5221517;28;20029;-72
2022/02/22 08:26:35;;;;;;;38.42;5.70;;;;;;;5.52;100.00;101925.72;5220817;28;20021;-72
2022/02/22 08:29:06;;;;;;;52.13;7.85;;;;;;;5.67;100.00;101926.44;5221024;28;20017;-72
2022/02/22 08:31:36;;;;;;;42.72;7.50;;;;;;;5.74;100.00;101924.22;5220488;28;20379;-72
2022/02/22 08:34:07;;;;;;;35.92;7.93;;;;;;;5.72;100.00;101918.97;5220364;28;20358;-72
2022/02/22 08:36:37;;;;;;;30.70;7.32;;;;;;;5.76;100.00;101917.81;5220844;28;20072;-72
2022/02/22 08:39:07;;;;;;;47.63;6.95;;;;;;;5.75;100.00;101921.44;5220952;28;20051;-73
2022/02/22 08:41:38;;;;;;;29.10;5.70;;;;;;;5.73;100.00;101920.72;5220236;28;20060;-72
2022/02/22 08:44:10;;;;;;;37.83;5.90;;;;;;;5.71;100.00;101915.47;5219178;28;20017;-71
2022/02/22 08:46:40;;;;;;;42.72;5.63;;;;;;;5.78;100.00;101902.59;5220223;28;20080;-72
2022/02/22 08:49:11;;;;;;;33.10;5.50;;;;;;;5.77;100.00;101916.00;5220368;28;20479;-72
2022/02/22 08:51:41;;;;;;;38.40;6.43;;;;;;;5.92;100.00;101912.28;5220310;28;20043;-72
2022/02/22 08:54:12;;;;;;;29.42;5.70;;;;;;;5.97;100.00;101916.34;5219047;28;20053;-72
2022/02/22 08:56:42;;;;;;;42.65;7.93;;;;;;;6.06;100.00;101912.13;5220201;28;20036;-72
2022/02/22 08:59:13;;;;;;;38.67;4.97;;;;;;;6.12;100.00;101909.00;5220091;28;20116;-72
2022/02/22 09:01:43;;;;;;;31.90;5.45;;;;;;;6.19;100.00;101896.97;5220630;28;20013;-72
2022/02/22 09:04:14;;;;;;;34.60;5.38;;;;;;;6.27;100.00;101896.38;5220026;28;20387;-72
2022/02/22 09:06:44;;;;;;;38.35;5.88;;;;;;;6.38;100.00;101896.47;5220950;28;20036;-72
2022/02/22 09:09:15;;;;;;;42.17;6.32;;;;;;;6.49;100.00;101882.34;5213690;28;20017;-72
2022/02/22 09:11:45;;;;;;;40.65;5.55;;;;;;;6.61;100.00;101872.56;5213293;28;20017;-72
2022/02/22 09:14:16;;;;;;;41.60;6.47;;;;;;;6.63;100.00;101865.31;5220281;28;20479;-72
2022/02/22 09:16:46;;;;;;;43.42;7.53;;;;;;;6.81;100.00;101861.22;5220117;28;20486;-72
2022/02/22 09:19:17;;;;;;;38.30;6.20;;;;;;;7.01;100.00;101851.69;5220588;28;20029;-72
2022/02/22 09:21:47;;;;;;;44.70;6.57;;;;;;;7.21;100.00;101842.16;5218338;28;20320;-72
2022/02/22 09:24:18;;;;;;;41.03;6.32;;;;;;;7.19;100.00;101836.09;5219875;28;20108;-72
2022/02/22 09:26:48;;;;;;;36.95;6.43;;;;;;;7.20;100.00;101835.13;5220149;28;20024;-74
2022/02/22 09:29:19;;;;;;;53.40;9.82;;;;;;;7.21;100.00;101845.66;5220155;28;20082;-72
2022/02/22 09:31:49;;;;;;;45.90;7.28;;;;;;;7.25;100.00;101830.25;5219727;28;20025;-72
2022/02/22 09:34:21;;;;;;;59.80;9.10;;;;;;;7.33;100.00;101821.63;5219552;28;20151;-72
2022/02/22 09:36:52;;;;;;;45.42;7.90;;;;;;;7.34;100.00;101821.53;5220108;28;20040;-72
2022/02/22 09:39:22;;;;;;;48.80;8.93;;;;;;;7.32;100.00;101810.09;5220183;28;20210;-72
2022/02/22 09:41:53;;;;;;;48.10;7.55;;;;;;;7.60;100.00;101808.75;5219782;28;20057;-72
2022/02/22 09:44:24;;;;;;;50.83;7.13;;;;;;;7.94;100.00;101804.22;5219951;28;20009;-72
2022/02/22 09:46:55;;;;;;;51.97;7.68;;;;;;;8.20;100.00;101812.75;5219845;28;20021;-72
2022/02/22 09:49:25;;;;;;;45.88;7.07;;;;;;;8.07;100.00;101811.19;5220623;28;20070;-73
2022/02/22 09:51:57;;;;;;;49.35;8.52;;;;;;;8.07;100.00;101809.38;5220060;28;20025;-73
2022/02/22 09:54:28;;;;;;;53.80;8.90;;;;;;;8.07;100.00;101811.19;5219697;28;20568;-72
2022/02/22 09:56:59;;;;;;;45.17;8.70;;;;;;;8.21;100.00;101822.44;5220397;28;20067;-73
2022/02/22 09:59:30;;;;;;;42.33;6.53;;;;;;;8.38;100.00;101820.22;5220071;28;20028;-73
2022/02/22 10:02:01;;;;;;;53.80;8.38;;;;;;;8.49;100.00;101813.03;5219811;28;20013;-73
2022/02/22 10:04:50;;;;;;;49.60;7.40;;;;;;;8.38;100.00;101810.38;5219933;28;20694;-73
2022/02/22 10:07:20;;;;;;;45.30;7.28;;;;;;;8.31;100.00;101806.50;5220365;28;20071;-72
2022/02/22 10:09:55;;;;;;;66.30;8.90;;;;;;;8.34;100.00;101808.09;5219854;28;20498;-72
2022/02/22 10:12:42;;;;;;;45.13;6.33;;;;;;;8.20;100.00;101798.53;5219816;28;20083;-73
2022/02/22 10:15:15;;;;;;;51.50;8.20;;;;;;;8.29;100.00;101805.78;5219891;28;20031;-72
2022/02/22 10:17:49;;;;;;;65.47;9.43;;;;;;;8.39;100.00;101796.06;5220143;28;20364;-73
2022/02/22 10:20:20;;;;;;;51.55;8.15;;;;;;;8.41;100.00;101801.25;5220237;28;20116;-73
2022/02/22 10:22:53;;;;;;;47.92;7.75;;;;;;;8.31;100.00;101809.16;5223212;28;20103;-73
2022/02/22 10:25:25;;;;;;;63.30;9.57;;;;;;;8.05;100.00;101808.66;5223264;28;20037;-73
2022/02/22 10:27:58;;;;;;;60.85;7.15;;;;;;;7.98;100.00;101813.69;5223414;28;20112;-72
2022/02/22 10:30:38;;;;;;;63.47;9.88;;;;;;;8.03;100.00;101811.47;5223966;28;20470;-73
2022/02/22 10:33:25;;;;;;;59.97;8.10;;;;;;;7.93;100.00;101805.19;5223537;28;20040;-73
2022/02/22 10:36:04;;;;;;;57.22;7.85;;;;;;;7.88;100.00;101806.50;5223118;28;20316;-73
2022/02/22 10:38:36;;;;;;;56.38;8.48;;;;;;;7.83;100.00;101811.38;5211269;28;20091;-73
2022/02/22 10:43:58;;;;;;;55.20;9.77;;;;;;;7.93;100.00;101797.16;5223462;28;20459;-73
2022/02/22 10:46:32;;;;;;;62.30;10.68;;;;;;;8.03;100.00;101792.78;5223632;28;20028;-73
2022/02/22 10:49:23;;;;;;;54.40;9.80;;;;;;;7.87;100.00;101788.78;5223191;28;20036;-73
2022/02/22 10:51:56;;;;;;;69.25;7.47;;;;;;;7.81;100.00;101800.81;5223149;28;20035;-73
2022/02/22 10:54:26;;;;;;;52.55;10.40;;;;;;;7.96;100.00;101812.94;5222789;28;20028;-73
2022/02/22 10:56:57;;;;;;;57.15;7.97;;;;;;;8.01;100.00;101813.41;5223193;28;20025;-73
2022/02/22 10:59:27;;;;;;;44.45;6.75;;;;;;;8.01;100.00;101817.91;5223341;28;20039;-74
2022/02/22 11:01:58;;;;;;;49.53;6.55;;;;;;;7.95;100.00;101816.59;5222341;28;20052;-73
2022/02/22 11:04:31;;;;;;;58.13;6.68;;;;;;;8.00;100.00;101826.91;5223094;28;20254;-73
2022/02/22 11:07:01;;;;;;;33.38;6.13;;;;;;;8.05;100.00;101816.69;5222376;28;20501;-73
2022/02/22 11:09:33;;;;;;;41.15;6.55;;;;;;;8.04;100.00;101804.31;5223372;28;20230;-73
2022/02/22 11:12:17;;;;;;;56.22;8.13;;;;;;;8.00;100.00;101792.16;5222492;28;20403;-73
2022/02/22 11:14:47;;;;;;;53.35;8.52;;;;;;;8.01;100.00;101792.03;5222468;28;20186;-73
2022/02/22 11:17:22;;;;;;;44.78;7.72;;;;;;;8.11;100.00;101791.28;5222692;28;20043;-73
2022/02/22 11:19:54;;;;;;;48.15;7.90;;;;;;;8.11;100.00;101788.59;5222481;28;20016;-73
2022/02/22 11:22:26;;;;;;;35.47;6.35;;;;;;;8.20;100.00;101793.19;5221958;28;20021;-72
2022/02/22 11:24:59;;;;;;;42.67;6.38;;;;;;;8.23;100.00;101780.41;5222439;28;20024;-73
2022/02/22 11:27:33;;;;;;;45.17;6.85;;;;;;;8.17;100.00;101782.72;5222863;28;20025;-73
2022/02/22 11:30:27;;;;;;;34.97;8.43;;;;;;;8.22;100.00;101772.50;5222758;28;20029;-73
2022/02/22 11:33:00;;;;;;;39.72;6.20;;;;;;;8.31;100.00;101782.44;5222188;28;20112;-73
2022/02/22 11:35:43;;;;;;;36.83;6.95;;;;;;;8.32;100.00;101787.66;5222236;28;20035;-73
2022/02/22 11:38:14;;;;;;;27.85;6.32;;;;;;;8.32;100.00;101779.63;5222189;28;20028;-73